CYQI

Yarmouth Airport

Yarmouth, , Canada
METAR CYQI 200037Z 05006KT 10SM SCT005 OVC038 14/14 A3005 RMK SF3SC5 SLP177
Observed Flight Rules
Sep-20 @ 00:37 UTC (4 minutes ago) Visual Flight Rules
Wind Visibility Clouds
50° at 6 knots 10 miles
  • Scattered at 500' AGL
  • Overcast at 3,800' AGL
Temperatures Readings
Current 14°C / 57°F
Dewpoint 14°C / 57°F
Humidity 100%
Altimeter 30.05" Hg
Pressure 1017.7 hPa
Elevation 43
METAR CYQI 200037Z 05006KT 10SM SCT005 OVC038 14/14 A3005 RMK SF3SC5 SLP177
Observed Flight Rules
Sep-20 @ 00:37 UTC
(4 minutes ago)
VFR
Wind Visibility
50° at 6 knots 10 miles
Clouds
  • Scattered at 500' AGL
  • Overcast at 3,800' AGL
Temperature Dewpoint
14°C / 57°F 14°C / 57°F
Humidity Altimeter Pressure
100% 30.05" Hg 1017.7 hPa